PWSweather.com
Personal Weather Stations
Station Observations
WILS01
Leuven, WilseleBE 3012

LeuvenWilseleBE 3012

Lat: 50.89518, Lon: 4.69741

Elevation: 120

Station Type: DAVIS VP2

Latest ConditionsUpdated 3:36:51 PM GMT+01:01 Wednesday, Apr 23, 2014
Currently Today's Max Today's Min Today's Average
Temperature 70.3°F21.3°C 73.6°F23.1°C 49.5°F9.7°C 58.4°F14.7°C
Dew Point 49.8°F9.9°C 53.8°F12.1°C 46.4°F8.0°C 49.7°F9.8°C
Winds 1.1 mph NNE1.8 kmh NNE 2.0 mph SSE3.2 kmh SSE - 0.5 mph 0.8 kmh
Wind Gusts 1.1 mph1.8 kmh 2.5 mph4.0 kmh - -
Humidity 48% 93% 43% 75%
Pressure 30.06 in1017.9 mb 30.10 in1019.3 mb 30.00 in1015.9 mb -
Hour Temp Dew Point Humidity Winds Wind Gusts Pressure Precip Precip Rate Daily Precip Total
03:36 PM 70.3°F21.3°C 49.8°F9.9°C 48% 1.1 mph NNE1.8 kmh NNE 1.1 mph1.8 kmh 30.06 in1017.9 mb 0.00 in0.0 mm 0.00 in/hr0.0 mm/hr 0.00 in0.0 mm
03:26 PM 71.1°F21.7°C 49.8°F9.9°C 47% 0.9 mph NE1.4 kmh NE 0.4 mph0.6 kmh 30.07 in1018.3 mb 0.00 in0.0 mm 0.00 in/hr0.0 mm/hr 0.00 in0.0 mm
03:16 PM 71.6°F22.0°C 50.5°F10.3°C 47% 0.9 mph NE1.4 kmh NE 1.6 mph2.6 kmh 30.07 in1018.3 mb 0.00 in0.0 mm 0.00 in/hr0.0 mm/hr 0.00 in0.0 mm
03:05 PM 71.6°F22.0°C 50.4°F10.2°C 47% 0.9 mph WNW1.4 kmh WNW 1.3 mph2.1 kmh 30.07 in1018.3 mb 0.00 in0.0 mm 0.00 in/hr0.0 mm/hr 0.00 in0.0 mm
02:55 PM 71.1°F21.7°C 49.8°F9.9°C 47% 0.9 mph SE1.4 kmh SE 1.6 mph2.6 kmh 30.07 in1018.3 mb 0.00 in0.0 mm 0.00 in/hr0.0 mm/hr 0.00 in0.0 mm
02:45 PM 71.1°F21.7°C 49.8°F9.9°C 47% Calm Calm 0.4 mph0.6 kmh 30.07 in1018.3 mb 0.00 in0.0 mm 0.00 in/hr0.0 mm/hr 0.00 in0.0 mm
02:35 PM 71.8°F22.1°C 49.3°F9.6°C 45% 0.9 mph SW1.4 kmh SW 1.6 mph2.6 kmh 30.07 in1018.3 mb 0.00 in0.0 mm 0.00 in/hr0.0 mm/hr 0.00 in0.0 mm
02:25 PM 72.9°F22.7°C 49.6°F9.8°C 44% 1.3 mph S2.1 kmh S 1.6 mph2.6 kmh 30.08 in1018.6 mb 0.00 in0.0 mm 0.00 in/hr0.0 mm/hr 0.00 in0.0 mm
02:15 PM 73.6°F23.1°C 50.0°F10.0°C 43% 0.9 mph SW1.4 kmh SW 1.6 mph2.6 kmh 30.08 in1018.6 mb 0.00 in0.0 mm 0.00 in/hr0.0 mm/hr 0.00 in0.0 mm
01:24 PM 71.4°F21.9°C 50.9°F10.5°C 48% 0.7 mph ENE1.1 kmh ENE 1.6 mph2.6 kmh 30.08 in1018.6 mb 0.00 in0.0 mm 0.00 in/hr0.0 mm/hr 0.00 in0.0 mm
01:13 PM 71.4°F21.9°C 50.9°F10.5°C 48% 0.7 mph ENE1.1 kmh ENE 1.6 mph2.6 kmh 30.08 in1018.6 mb 0.00 in0.0 mm 0.00 in/hr0.0 mm/hr 0.00 in0.0 mm
01:03 PM 70.9°F21.6°C 50.9°F10.5°C 49% 0.7 mph SW1.1 kmh SW 0.9 mph1.4 kmh 30.09 in1019.0 mb 0.00 in0.0 mm 0.00 in/hr0.0 mm/hr 0.00 in0.0 mm
12:53 PM 71.1°F21.7°C 50.5°F10.3°C 48% 0.9 mph SW1.4 kmh SW 0.9 mph1.4 kmh 30.09 in1019.0 mb 0.00 in0.0 mm 0.00 in/hr0.0 mm/hr 0.00 in0.0 mm
12:42 PM 71.1°F21.7°C 50.2°F10.1°C 47% 1.1 mph ENE1.8 kmh ENE 1.3 mph2.1 kmh 30.09 in1019.0 mb 0.00 in0.0 mm 0.00 in/hr0.0 mm/hr 0.00 in0.0 mm
12:32 PM 71.2°F21.8°C 50.4°F10.2°C 47% 0.9 mph SW1.4 kmh SW 1.8 mph2.9 kmh 30.09 in1019.0 mb 0.00 in0.0 mm 0.00 in/hr0.0 mm/hr 0.00 in0.0 mm
12:22 PM 70.3°F21.3°C 50.7°F10.4°C 49% 0.9 mph S1.4 kmh S 0.9 mph1.4 kmh 30.09 in1019.0 mb 0.00 in0.0 mm 0.00 in/hr0.0 mm/hr 0.00 in0.0 mm
12:12 PM 69.6°F20.9°C 50.0°F10.0°C 49% 0.9 mph WNW1.4 kmh WNW 1.6 mph2.6 kmh 30.09 in1019.0 mb 0.00 in0.0 mm 0.00 in/hr0.0 mm/hr 0.00 in0.0 mm
12:02 PM 69.6°F20.9°C 50.4°F10.2°C 50% 0.9 mph E1.4 kmh E 1.3 mph2.1 kmh 30.09 in1019.0 mb 0.00 in0.0 mm 0.00 in/hr0.0 mm/hr 0.00 in0.0 mm
11:52 AM 69.1°F20.6°C 50.4°F10.2°C 51% 1.8 mph SSW2.9 kmh SSW 1.6 mph2.6 kmh 30.09 in1019.0 mb 0.00 in0.0 mm 0.00 in/hr0.0 mm/hr 0.00 in0.0 mm
11:42 AM 68.5°F20.3°C 50.4°F10.2°C 52% 0.9 mph SSW1.4 kmh SSW 1.1 mph1.8 kmh 30.09 in1019.0 mb 0.00 in0.0 mm 0.00 in/hr0.0 mm/hr 0.00 in0.0 mm
11:31 AM 68.0°F20.0°C 50.5°F10.3°C 53% 0.9 mph SW1.4 kmh SW 0.7 mph1.1 kmh 30.09 in1019.0 mb 0.00 in0.0 mm 0.00 in/hr0.0 mm/hr 0.00 in0.0 mm
11:21 AM 67.3°F19.6°C 50.4°F10.2°C 54% 1.1 mph S1.8 kmh S 1.3 mph2.1 kmh 30.09 in1019.0 mb 0.00 in0.0 mm 0.00 in/hr0.0 mm/hr 0.00 in0.0 mm
11:11 AM 67.1°F19.5°C 50.7°F10.4°C 55% 1.8 mph S2.9 kmh S 1.8 mph2.9 kmh 30.09 in1019.0 mb 0.00 in0.0 mm 0.00 in/hr0.0 mm/hr 0.00 in0.0 mm
11:00 AM 66.7°F19.3°C 49.8°F9.9°C 54% 2.0 mph SSE3.2 kmh SSE 1.8 mph2.9 kmh 30.10 in1019.3 mb 0.00 in0.0 mm 0.00 in/hr0.0 mm/hr 0.00 in0.0 mm
10:50 AM 66.4°F19.1°C 49.6°F9.8°C 54% 1.8 mph SW2.9 kmh SW 2.0 mph3.2 kmh 30.10 in1019.3 mb 0.00 in0.0 mm 0.00 in/hr0.0 mm/hr 0.00 in0.0 mm
10:40 AM 66.0°F18.9°C 51.6°F10.9°C 60% 0.9 mph E1.4 kmh E 1.1 mph1.8 kmh 30.10 in1019.3 mb 0.00 in0.0 mm 0.00 in/hr0.0 mm/hr 0.00 in0.0 mm
10:30 AM 65.7°F18.7°C 51.8°F11.0°C 61% 0.9 mph SSW1.4 kmh SSW 2.5 mph4.0 kmh 30.10 in1019.3 mb 0.00 in0.0 mm 0.00 in/hr0.0 mm/hr 0.00 in0.0 mm
10:20 AM 65.1°F18.4°C 51.8°F11.0°C 62% 0.9 mph SW1.4 kmh SW 1.1 mph1.8 kmh 30.09 in1019.0 mb 0.00 in0.0 mm 0.00 in/hr0.0 mm/hr 0.00 in0.0 mm
10:09 AM 63.9°F17.7°C 53.1°F11.7°C 68% 0.9 mph W1.4 kmh W 1.6 mph2.6 kmh 30.10 in1019.3 mb 0.00 in0.0 mm 0.00 in/hr0.0 mm/hr 0.00 in0.0 mm
09:59 AM 63.0°F17.2°C 53.1°F11.7°C 70% Calm Calm 0.4 mph0.6 kmh 30.09 in1019.0 mb 0.00 in0.0 mm 0.00 in/hr0.0 mm/hr 0.00 in0.0 mm
09:48 AM 62.2°F16.8°C 53.2°F11.8°C 72% 0.9 mph SW1.4 kmh SW 0.4 mph0.6 kmh 30.09 in1019.0 mb 0.00 in0.0 mm 0.00 in/hr0.0 mm/hr 0.00 in0.0 mm
09:38 AM 61.3°F16.3°C 53.8°F12.1°C 76% 0.9 mph WNW1.4 kmh WNW 0.7 mph1.1 kmh 30.09 in1019.0 mb 0.00 in0.0 mm 0.00 in/hr0.0 mm/hr 0.00 in0.0 mm
09:28 AM 60.3°F15.7°C 53.6°F12.0°C 78% Calm Calm 0.4 mph0.6 kmh 30.09 in1019.0 mb 0.00 in0.0 mm 0.00 in/hr0.0 mm/hr 0.00 in0.0 mm
09:18 AM 59.0°F15.0°C 53.8°F12.1°C 82% 0.9 mph WNW1.4 kmh WNW 0.4 mph0.6 kmh 30.09 in1019.0 mb 0.00 in0.0 mm 0.00 in/hr0.0 mm/hr 0.00 in0.0 mm
09:07 AM 57.9°F14.4°C 53.4°F11.9°C 85% Calm Calm 0.4 mph0.6 kmh 30.09 in1019.0 mb 0.00 in0.0 mm 0.00 in/hr0.0 mm/hr 0.00 in0.0 mm
08:57 AM 57.2°F14.0°C 53.2°F11.8°C 86% 0.9 mph SW1.4 kmh SW 0.7 mph1.1 kmh 30.09 in1019.0 mb 0.00 in0.0 mm 0.00 in/hr0.0 mm/hr 0.00 in0.0 mm
08:46 AM 56.3°F13.5°C 52.7°F11.5°C 88% 1.6 mph W2.6 kmh W 1.8 mph2.9 kmh 30.09 in1019.0 mb 0.00 in0.0 mm 0.00 in/hr0.0 mm/hr 0.00 in0.0 mm
08:36 AM 55.4°F13.0°C 52.5°F11.4°C 89% 2.0 mph SW3.2 kmh SW 2.0 mph3.2 kmh 30.09 in1019.0 mb 0.00 in0.0 mm 0.00 in/hr0.0 mm/hr 0.00 in0.0 mm
08:26 AM 54.9°F12.7°C 52.3°F11.3°C 91% 1.8 mph SW2.9 kmh SW 1.6 mph2.6 kmh 30.08 in1018.6 mb 0.00 in0.0 mm 0.00 in/hr0.0 mm/hr 0.00 in0.0 mm
08:16 AM 54.0°F12.2°C 52.0°F11.1°C 92% 0.9 mph SSW1.4 kmh SSW 1.1 mph1.8 kmh 30.08 in1018.6 mb 0.00 in0.0 mm 0.00 in/hr0.0 mm/hr 0.00 in0.0 mm
08:05 AM 53.2°F11.8°C 51.3°F10.7°C 93% 0.9 mph SSE1.4 kmh SSE 0.4 mph0.6 kmh 30.08 in1018.6 mb 0.00 in0.0 mm 0.00 in/hr0.0 mm/hr 0.00 in0.0 mm
07:55 AM 52.3°F11.3°C 50.4°F10.2°C 93% 0.9 mph SSW1.4 kmh SSW 0.9 mph1.4 kmh 30.07 in1018.3 mb 0.00 in0.0 mm 0.00 in/hr0.0 mm/hr 0.00 in0.0 mm
07:44 AM 51.4°F10.8°C 49.5°F9.7°C 93% Calm Calm 1.1 mph1.8 kmh 30.07 in1018.3 mb 0.00 in0.0 mm 0.00 in/hr0.0 mm/hr 0.00 in0.0 mm
07:34 AM 50.7°F10.4°C 48.6°F9.2°C 92% Calm Calm 0.4 mph0.6 kmh 30.07 in1018.3 mb 0.00 in0.0 mm 0.00 in/hr0.0 mm/hr 0.00 in0.0 mm
07:24 AM 50.4°F10.2°C 47.8°F8.8°C 91% Calm Calm 0.9 mph1.4 kmh 30.07 in1018.3 mb 0.00 in0.0 mm 0.00 in/hr0.0 mm/hr 0.00 in0.0 mm
07:14 AM 49.8°F9.9°C 47.3°F8.5°C 91% Calm Calm -- 30.07 in1018.3 mb 0.00 in0.0 mm 0.00 in/hr0.0 mm/hr 0.00 in0.0 mm
07:04 AM 49.6°F9.8°C 46.8°F8.2°C 90% Calm Calm -- 30.07 in1018.3 mb 0.00 in0.0 mm 0.00 in/hr0.0 mm/hr 0.00 in0.0 mm
06:54 AM 49.5°F9.7°C 46.6°F8.1°C 89% Calm Calm 0.2 mph0.3 kmh 30.07 in1018.3 mb 0.00 in0.0 mm 0.00 in/hr0.0 mm/hr 0.00 in0.0 mm
06:44 AM 49.5°F9.7°C 46.4°F8.0°C 89% Calm Calm -- 30.06 in1017.9 mb 0.00 in0.0 mm 0.00 in/hr0.0 mm/hr 0.00 in0.0 mm
06:33 AM 49.6°F9.8°C 46.6°F8.1°C 89% Calm Calm -- 30.07 in1018.3 mb 0.00 in0.0 mm 0.00 in/hr0.0 mm/hr 0.00 in0.0 mm
06:23 AM 49.8°F9.9°C 46.8°F8.2°C 89% Calm Calm -- 30.06 in1017.9 mb 0.00 in0.0 mm 0.00 in/hr0.0 mm/hr 0.00 in0.0 mm
06:13 AM 50.0°F10.0°C 46.9°F8.3°C 89% Calm Calm -- 30.06 in1017.9 mb 0.00 in0.0 mm 0.00 in/hr0.0 mm/hr 0.00 in0.0 mm
06:02 AM 50.4°F10.2°C 47.3°F8.5°C 89% Calm Calm -- 30.06 in1017.9 mb 0.00 in0.0 mm 0.00 in/hr0.0 mm/hr 0.00 in0.0 mm
05:52 AM 50.5°F10.3°C 47.5°F8.6°C 89% Calm Calm 0.2 mph0.3 kmh 30.06 in1017.9 mb 0.00 in0.0 mm 0.00 in/hr0.0 mm/hr 0.00 in0.0 mm
05:42 AM 50.7°F10.4°C 47.7°F8.7°C 89% Calm Calm -- 30.06 in1017.9 mb 0.00 in0.0 mm 0.00 in/hr0.0 mm/hr 0.00 in0.0 mm
05:32 AM 51.1°F10.6°C 48.0°F8.9°C 89% Calm Calm -- 30.06 in1017.9 mb 0.00 in0.0 mm 0.00 in/hr0.0 mm/hr 0.00 in0.0 mm
05:22 AM 51.3°F10.7°C 48.2°F9.0°C 89% Calm Calm 0.7 mph1.1 kmh 30.05 in1017.6 mb 0.00 in0.0 mm 0.00 in/hr0.0 mm/hr 0.00 in0.0 mm
05:11 AM 51.4°F10.8°C 48.4°F9.1°C 89% Calm Calm 0.4 mph0.6 kmh 30.05 in1017.6 mb 0.00 in0.0 mm 0.00 in/hr0.0 mm/hr 0.00 in0.0 mm
05:00 AM 51.6°F10.9°C 48.7°F9.3°C 89% Calm Calm -- 30.04 in1017.3 mb 0.00 in0.0 mm 0.00 in/hr0.0 mm/hr 0.00 in0.0 mm
04:50 AM 51.8°F11.0°C 48.9°F9.4°C 90% Calm Calm -- 30.04 in1017.3 mb 0.00 in0.0 mm 0.00 in/hr0.0 mm/hr 0.00 in0.0 mm
04:40 AM 51.8°F11.0°C 48.9°F9.4°C 90% Calm Calm 0.2 mph0.3 kmh 30.04 in1017.3 mb 0.00 in0.0 mm 0.00 in/hr0.0 mm/hr 0.00 in0.0 mm
04:30 AM 51.6°F10.9°C 48.6°F9.2°C 89% Calm Calm 0.4 mph0.6 kmh 30.04 in1017.3 mb 0.00 in0.0 mm 0.00 in/hr0.0 mm/hr 0.00 in0.0 mm
04:20 AM 51.6°F10.9°C 48.4°F9.1°C 88% Calm Calm 0.4 mph0.6 kmh 30.04 in1017.3 mb 0.00 in0.0 mm 0.00 in/hr0.0 mm/hr 0.00 in0.0 mm
04:10 AM 51.6°F10.9°C 48.2°F9.0°C 88% Calm Calm 0.2 mph0.3 kmh 30.03 in1016.9 mb 0.00 in0.0 mm 0.00 in/hr0.0 mm/hr 0.00 in0.0 mm
03:59 AM 52.0°F11.1°C 48.6°F9.2°C 88% Calm Calm -- 30.03 in1016.9 mb 0.00 in0.0 mm 0.00 in/hr0.0 mm/hr 0.00 in0.0 mm
03:49 AM 52.2°F11.2°C 48.7°F9.3°C 88% Calm Calm -- 30.03 in1016.9 mb 0.00 in0.0 mm 0.00 in/hr0.0 mm/hr 0.00 in0.0 mm
03:38 AM 52.3°F11.3°C 48.9°F9.4°C 88% Calm Calm -- 30.02 in1016.6 mb 0.00 in0.0 mm 0.00 in/hr0.0 mm/hr 0.00 in0.0 mm
03:27 AM 52.3°F11.3°C 49.3°F9.6°C 88% Calm Calm -- 30.03 in1016.9 mb 0.00 in0.0 mm 0.00 in/hr0.0 mm/hr 0.00 in0.0 mm
03:17 AM 52.5°F11.4°C 49.5°F9.7°C 89% Calm Calm -- 30.03 in1016.9 mb 0.00 in0.0 mm 0.00 in/hr0.0 mm/hr 0.00 in0.0 mm
03:07 AM 52.5°F11.4°C 49.5°F9.7°C 89% Calm Calm -- 30.03 in1016.9 mb 0.00 in0.0 mm 0.00 in/hr0.0 mm/hr 0.00 in0.0 mm
02:57 AM 52.5°F11.4°C 49.5°F9.7°C 89% Calm Calm 0.4 mph0.6 kmh 30.03 in1016.9 mb 0.00 in0.0 mm 0.00 in/hr0.0 mm/hr 0.00 in0.0 mm
02:46 AM 52.5°F11.4°C 49.5°F9.7°C 89% Calm Calm 0.4 mph0.6 kmh 30.02 in1016.6 mb 0.00 in0.0 mm 0.00 in/hr0.0 mm/hr 0.00 in0.0 mm
02:36 AM 52.5°F11.4°C 49.5°F9.7°C 89% Calm Calm 0.4 mph0.6 kmh 30.02 in1016.6 mb 0.00 in0.0 mm 0.00 in/hr0.0 mm/hr 0.00 in0.0 mm
02:26 AM 52.5°F11.4°C 49.1°F9.5°C 88% Calm Calm -- 30.02 in1016.6 mb 0.00 in0.0 mm 0.00 in/hr0.0 mm/hr 0.00 in0.0 mm
02:16 AM 52.5°F11.4°C 49.1°F9.5°C 88% Calm Calm 0.7 mph1.1 kmh 30.02 in1016.6 mb 0.00 in0.0 mm 0.00 in/hr0.0 mm/hr 0.00 in0.0 mm
02:05 AM 52.5°F11.4°C 49.1°F9.5°C 88% Calm Calm 0.2 mph0.3 kmh 30.01 in1016.3 mb 0.00 in0.0 mm 0.00 in/hr0.0 mm/hr 0.00 in0.0 mm
01:55 AM 52.7°F11.5°C 49.3°F9.6°C 88% Calm Calm 0.4 mph0.6 kmh 30.01 in1016.3 mb 0.00 in0.0 mm 0.00 in/hr0.0 mm/hr 0.00 in0.0 mm
01:45 AM 52.5°F11.4°C 49.1°F9.5°C 88% 0.7 mph WSW1.1 kmh WSW 0.4 mph0.6 kmh 30.01 in1016.3 mb 0.00 in0.0 mm 0.00 in/hr0.0 mm/hr 0.00 in0.0 mm
01:34 AM 52.3°F11.3°C 48.6°F9.2°C 87% Calm Calm 0.2 mph0.3 kmh 30.01 in1016.3 mb 0.00 in0.0 mm 0.00 in/hr0.0 mm/hr 0.00 in0.0 mm
01:24 AM 52.5°F11.4°C 48.7°F9.3°C 87% Calm Calm -- 30.01 in1016.3 mb 0.00 in0.0 mm 0.00 in/hr0.0 mm/hr 0.00 in0.0 mm
01:14 AM 52.5°F11.4°C 48.4°F9.1°C 86% Calm Calm -- 30.01 in1016.3 mb 0.00 in0.0 mm 0.00 in/hr0.0 mm/hr 0.00 in0.0 mm
01:03 AM 52.5°F11.4°C 48.2°F9.0°C 85% Calm Calm 0.2 mph0.3 kmh 30.01 in1016.3 mb 0.00 in0.0 mm 0.00 in/hr0.0 mm/hr 0.00 in0.0 mm
12:53 AM 52.5°F11.4°C 48.2°F9.0°C 85% Calm Calm -- 30.01 in1016.3 mb 0.00 in0.0 mm 0.00 in/hr0.0 mm/hr 0.00 in0.0 mm
12:43 AM 52.5°F11.4°C 47.8°F8.8°C 84% Calm Calm -- 30.01 in1016.3 mb 0.00 in0.0 mm 0.00 in/hr0.0 mm/hr 0.00 in0.0 mm
12:32 AM 52.5°F11.4°C 47.7°F8.7°C 83% Calm Calm -- 30.01 in1016.3 mb 0.00 in0.0 mm 0.00 in/hr0.0 mm/hr 0.00 in0.0 mm
12:22 AM 52.7°F11.5°C 47.7°F8.7°C 83% Calm Calm 0.2 mph0.3 kmh 30.00 in1015.9 mb 0.00 in0.0 mm 0.00 in/hr0.0 mm/hr 0.00 in0.0 mm
12:11 AM 52.9°F11.6°C 47.5°F8.6°C 82% Calm Calm -- 30.00 in1015.9 mb 0.00 in0.0 mm 0.00 in/hr0.0 mm/hr 0.00 in0.0 mm